Browns, Illinois
Current Conditions -  °F | °C
As of 4:55 PM on Tuesday 27 Jan 2015 (Local Time) from KAJG Reporting Station
Overcast Overcast  
Wind Chill: -1°   Ceiling: 1400
Heat Index:   Visibility: 10mi
Dew Point: -1°   Wind: 6mph
Humidity: 81%   Direction: 350°N
Pressure: 30.2"   Gusts: NA
Location:  38.38°N, 87.98°W
Report Text: KAJG 272255Z AUTO 35005KT 10SM BKN014 OVC021 02/M01 A3020 RMK AO2
Loading
Personal Weather Stations






























Interactive Weather Map New forecast layout! Learn more

10-Day Weather Forecast

Advertisements
Track Severe Weather on mobile